Time;durP1;ratioP1;P1;durP2;ratioP2;P2;SDS_P1;SDS_P2;PMS_P1;PMS_P2;Temp;Humidity;BMP_temperature;BMP_pressure;BME280_temperature;BME280_humidity;BME280_pressure;Samples;Min_cycle;Max_cycle;Signal;HPM_P1;HPM_P2
2021/07/28 04:59:08;;;;;;;;;;;;;;;;;;;;;
2021/07/28 07:00:06;;;;;;;;;;;;;;;;;;;;;
2021/07/28 09:52:33;;;;;;;;;;;;;;;;;;;;;
2021/07/28 12:14:38;;;;;;;23.55;8.77;;;31.40;99.90;;;;;;4821696;29;20053;-92
2021/07/28 17:02:05;;;;;;;;;;;;;;;;;;;;;
2021/07/28 17:45:01;;;;;;;22.45;7.88;;;29.20;99.90;;;;;;4887442;23;20091;-90
2021/07/28 17:47:27;;;;;;;27.45;8.38;;;29.20;99.90;;;;;;4897172;29;20123;-88
2021/07/28 17:50:02;;;;;;;29.77;7.68;;;29.10;99.90;;;;;;4909073;29;20032;-89
2021/07/28 17:52:28;;;;;;;26.33;7.28;;;29.10;99.90;;;;;;4909116;29;20060;-90
2021/07/28 17:54:59;;;;;;;25.13;7.63;;;29.00;99.90;;;;;;4911851;29;20119;-92
2021/07/28 17:57:27;;;;;;;28.27;7.68;;;28.90;99.90;;;;;;4910336;29;20506;-86
2021/07/28 17:59:53;;;;;;;24.13;7.25;;;28.90;99.90;;;;;;4899262;29;20493;-85
2021/07/28 18:02:19;;;;;;;21.15;8.15;;;28.90;99.90;;;;;;4899351;29;20039;-87
2021/07/28 18:04:48;;;;;;;22.38;7.13;;;28.90;99.90;;;;;;4908649;29;20087;-84
2021/07/28 18:07:19;;;;;;;14.48;7.05;;;28.80;99.90;;;;;;4910297;29;20513;-91
2021/07/28 18:09:44;;;;;;;14.30;6.85;;;28.80;99.90;;;;;;4918642;29;20040;-87
2021/07/28 18:12:10;;;;;;;23.63;8.13;;;28.70;99.90;;;;;;4921489;29;20039;-93
2021/07/28 18:14:36;;;;;;;17.58;6.95;;;28.70;99.90;;;;;;4899694;29;20049;-83
2021/07/28 18:17:09;;;;;;;22.40;6.50;;;28.70;99.90;;;;;;4904667;29;20054;-92
2021/07/28 18:19:35;;;;;;;22.55;7.30;;;28.70;99.90;;;;;;4905217;29;20033;-84
2021/07/28 18:22:03;;;;;;;32.78;7.60;;;28.70;99.90;;;;;;4901322;29;20033;-94
2021/07/28 18:24:30;;;;;;;20.65;7.30;;;28.70;99.90;;;;;;4903111;29;20037;-94
2021/07/28 18:26:56;;;;;;;32.60;7.85;;;28.60;99.90;;;;;;4900356;29;20489;-85
2021/07/28 18:29:22;;;;;;;23.45;6.93;;;28.60;99.90;;;;;;4902291;29;20032;-94
2021/07/28 18:31:48;;;;;;;26.70;7.72;;;28.60;99.90;;;;;;4894480;29;20500;-92
2021/07/28 18:34:37;;;;;;;20.58;7.70;;;28.50;99.90;;;;;;4911031;29;20517;-91
2021/07/28 18:37:10;;;;;;;24.95;7.07;;;28.50;99.90;;;;;;4900143;29;20044;-94
2021/07/28 18:39:39;;;;;;;21.85;6.45;;;28.50;99.90;;;;;;4883736;29;20033;-87
2021/07/28 18:42:10;;;;;;;20.52;7.80;;;28.50;99.90;;;;;;4910302;29;20505;-96
2021/07/28 18:45:29;;;;;;;17.08;7.50;;;28.50;99.90;;;;;;4906025;29;20067;-96
2021/07/28 18:48:02;;;;;;;23.33;7.55;;;28.50;99.90;;;;;;4893126;29;20120;-96
2021/07/28 18:50:34;;;;;;;23.85;8.18;;;28.50;99.90;;;;;;4899741;29;20040;-89
2021/07/28 18:53:09;;;;;;;26.50;8.23;;;28.40;99.90;;;;;;4898232;29;20079;-92
2021/07/28 18:55:38;;;;;;;31.13;8.40;;;28.30;99.90;;;;;;4899149;29;20084;-94
2021/07/28 18:58:04;;;;;;;35.13;8.40;;;28.30;99.90;;;;;;4899062;29;20028;-88
2021/07/28 19:00:30;;;;;;;19.52;8.10;;;28.20;99.90;;;;;;4886055;29;20033;-84
2021/07/28 19:02:56;;;;;;;29.50;8.23;;;28.20;99.90;;;;;;4897592;29;20103;-88
2021/07/28 19:05:25;;;;;;;32.55;8.88;;;28.20;99.90;;;;;;4886657;29;20045;-91
2021/07/28 19:07:50;;;;;;;26.05;8.35;;;28.10;99.90;;;;;;4894928;29;20499;-87
2021/07/28 19:10:22;;;;;;;27.15;8.88;;;28.10;99.90;;;;;;4897591;29;20127;-90
2021/07/28 19:12:57;;;;;;;19.83;8.65;;;28.10;99.90;;;;;;4895261;29;20089;-86
2021/07/28 19:15:33;;;;;;;28.35;8.80;;;28.00;99.90;;;;;;4892770;29;20393;-87
2021/07/28 19:18:06;;;;;;;24.67;8.75;;;28.00;99.90;;;;;;4898531;29;20093;-90
2021/07/28 19:20:32;;;;;;;23.20;8.15;;;27.90;99.90;;;;;;4896966;29;20036;-89
2021/07/28 19:22:58;;;;;;;21.92;7.80;;;27.70;99.90;;;;;;4897876;29;20398;-92
2021/07/28 19:25:24;;;;;;;24.33;8.82;;;27.60;99.90;;;;;;4899107;29;20100;-85
2021/07/28 19:28:00;;;;;;;26.25;9.95;;;27.40;99.90;;;;;;4898733;29;20119;-94
2021/07/28 19:30:26;;;;;;;20.92;9.07;;;27.30;99.90;;;;;;4908638;29;20025;-87
2021/07/28 19:32:53;;;;;;;15.68;8.02;;;27.10;99.90;;;;;;4904351;29;20618;-95
2021/07/28 19:35:20;;;;;;;20.55;8.73;;;27.10;99.90;;;;;;4897070;29;20049;-92
2021/07/28 19:38:27;;;;;;;21.58;8.73;;;27.00;99.90;;;;;;4898405;29;20036;-89
2021/07/28 19:40:53;;;;;;;24.10;8.38;;;27.00;99.90;;;;;;4871061;29;20124;-89
2021/07/28 19:43:22;;;;;;;17.65;8.25;;;26.90;99.90;;;;;;4896034;29;20524;-88
2021/07/28 19:45:57;;;;;;;22.88;7.40;;;27.00;99.90;;;;;;4897884;29;20052;-91
2021/07/28 19:48:38;;;;;;;23.55;8.15;;;27.00;99.90;;;;;;4896472;29;20036;-88
2021/07/28 19:51:10;;;;;;;19.80;8.33;;;27.10;99.90;;;;;;4898071;29;20060;-91
2021/07/28 19:53:35;;;;;;;32.80;8.48;;;27.10;99.90;;;;;;4902146;29;20049;-90
2021/07/28 19:56:01;;;;;;;18.55;7.65;;;27.10;99.90;;;;;;4898542;29;20036;-87
2021/07/28 19:58:27;;;;;;;27.98;8.18;;;27.10;99.90;;;;;;4900369;29;20028;-95
2021/07/28 20:00:56;;;;;;;27.00;7.57;;;27.10;99.90;;;;;;4897497;29;20095;-93
2021/07/28 20:03:28;;;;;;;29.50;8.18;;;27.10;99.90;;;;;;4898802;29;20037;-87
2021/07/28 20:06:00;;;;;;;28.40;7.80;;;27.10;99.90;;;;;;4902605;29;20032;-86
2021/07/28 20:08:25;;;;;;;30.45;8.00;;;27.10;99.90;;;;;;4899804;29;20120;-91
2021/07/28 20:11:03;;;;;;;20.92;7.80;;;27.10;99.90;;;;;;4899181;29;20119;-88
2021/07/28 20:13:31;;;;;;;17.00;7.75;;;27.10;99.90;;;;;;4900116;29;20029;-87
2021/07/28 20:15:57;;;;;;;16.92;8.40;;;27.10;99.90;;;;;;4891861;29;20036;-87
2021/07/28 20:18:24;;;;;;;20.98;8.85;;;27.10;99.90;;;;;;4897685;29;20164;-92
2021/07/28 20:20:50;;;;;;;18.60;8.00;;;27.10;99.90;;;;;;4897880;29;20045;-88
2021/07/28 20:23:16;;;;;;;17.33;7.45;;;27.10;99.90;;;;;;4896707;29;20039;-89
2021/07/28 20:25:47;;;;;;;20.65;8.25;;;27.10;99.90;;;;;;4896757;29;20037;-93
2021/07/28 20:28:17;;;;;;;13.88;7.13;;;27.10;99.90;;;;;;4897723;29;20041;-85
2021/07/28 20:30:45;;;;;;;25.30;7.70;;;27.10;99.90;;;;;;4903032;29;20023;-84
2021/07/28 20:33:11;;;;;;;23.67;7.45;;;27.10;99.90;;;;;;4902410;29;20128;-92
2021/07/28 20:35:37;;;;;;;17.38;8.68;;;27.10;99.90;;;;;;4898963;29;20044;-84
2021/07/28 20:38:03;;;;;;;24.33;8.35;;;27.10;99.90;;;;;;4901274;29;20088;-93
2021/07/28 20:40:31;;;;;;;24.83;8.38;;;27.10;99.90;;;;;;4910673;29;21446;-86
2021/07/28 20:42:56;;;;;;;21.23;8.27;;;27.10;99.90;;;;;;4910061;29;20032;-89
2021/07/28 20:45:22;;;;;;;21.30;8.43;;;27.00;99.90;;;;;;4898675;29;20557;-90
2021/07/28 20:47:48;;;;;;;23.10;7.20;;;27.00;99.90;;;;;;4897205;29;20066;-86
2021/07/28 20:50:13;;;;;;;22.20;8.35;;;27.00;99.90;;;;;;4897524;29;20069;-89
2021/07/28 20:52:43;;;;;;;17.35;7.80;;;27.00;99.90;;;;;;4897650;29;20032;-90
2021/07/28 20:55:09;;;;;;;20.15;7.55;;;26.90;99.90;;;;;;4897652;29;20439;-86
2021/07/28 20:57:38;;;;;;;24.20;8.07;;;26.90;99.90;;;;;;4896161;29;20447;-87
2021/07/28 21:00:05;;;;;;;18.50;7.68;;;26.90;99.90;;;;;;4897599;29;20039;-86
2021/07/28 21:02:31;;;;;;;25.80;8.07;;;26.90;99.90;;;;;;4896816;29;20035;-87
2021/07/28 21:04:56;;;;;;;24.75;7.60;;;26.80;99.90;;;;;;4896768;29;20036;-85
2021/07/28 21:07:22;;;;;;;18.27;7.68;;;26.80;99.90;;;;;;4897628;29;20502;-88
2021/07/28 21:09:48;;;;;;;19.88;7.80;;;26.70;99.90;;;;;;4897285;29;20037;-88
2021/07/28 21:12:19;;;;;;;31.88;9.25;;;26.70;99.90;;;;;;4896930;29;20084;-87
2021/07/28 21:14:52;;;;;;;19.27;8.30;;;26.60;99.90;;;;;;4880084;29;20130;-90
2021/07/28 21:17:18;;;;;;;17.60;7.82;;;26.60;99.90;;;;;;4897372;29;20036;-88
2021/07/28 21:19:44;;;;;;;19.35;8.57;;;26.60;99.90;;;;;;4898119;29;20037;-86
2021/07/28 21:22:09;;;;;;;21.25;7.57;;;26.50;99.90;;;;;;4900529;29;20111;-87
2021/07/28 21:24:35;;;;;;;23.40;8.68;;;26.50;99.90;;;;;;4900228;29;20057;-88
2021/07/28 21:27:01;;;;;;;18.15;8.35;;;26.40;99.90;;;;;;4891277;29;20040;-88
2021/07/28 21:29:26;;;;;;;25.48;8.50;;;26.40;99.90;;;;;;4893087;29;20037;-88
2021/07/28 21:31:54;;;;;;;15.75;7.50;;;26.40;99.90;;;;;;4899459;29;20706;-86
2021/07/28 21:34:23;;;;;;;20.38;7.57;;;26.40;99.90;;;;;;4896107;29;20074;-89
2021/07/28 21:36:50;;;;;;;26.15;8.35;;;26.40;99.90;;;;;;4899241;29;20041;-92
2021/07/28 21:39:15;;;;;;;14.48;7.25;;;26.30;99.90;;;;;;4899791;29;20103;-88
2021/07/28 21:41:43;;;;;;;15.65;7.95;;;26.30;99.90;;;;;;4899665;29;20045;-86
2021/07/28 21:44:11;;;;;;;22.38;8.50;;;26.20;99.90;;;;;;4898574;29;20498;-88
2021/07/28 21:46:39;;;;;;;17.85;7.30;;;26.20;99.90;;;;;;4899629;29;20374;-87
2021/07/28 21:49:06;;;;;;;17.48;8.07;;;26.20;99.90;;;;;;4898390;29;20032;-88
2021/07/28 21:52:01;;;;;;;21.52;7.75;;;26.10;99.90;;;;;;4898648;29;20045;-86
2021/07/28 21:54:37;;;;;;;18.27;8.20;;;26.10;99.90;;;;;;4898011;29;20048;-89
2021/07/28 21:57:24;;;;;;;21.67;8.63;;;26.20;99.90;;;;;;4899992;29;20494;-89
2021/07/28 21:59:57;;;;;;;27.83;8.02;;;26.10;99.90;;;;;;4883181;29;20056;-87
2021/07/28 22:03:08;;;;;;;30.48;8.70;;;26.10;99.90;;;;;;4883081;29;20522;-90
2021/07/28 22:05:37;;;;;;;17.35;8.10;;;26.10;99.90;;;;;;4900066;29;20041;-90
2021/07/28 22:08:03;;;;;;;19.52;7.88;;;26.10;99.90;;;;;;4899735;29;20040;-90
2021/07/28 22:10:30;;;;;;;18.02;8.02;;;26.00;99.90;;;;;;4898692;29;20056;-91
2021/07/28 22:12:56;;;;;;;21.10;8.35;;;26.00;99.90;;;;;;4883449;29;20047;-88
2021/07/28 22:15:28;;;;;;;19.65;8.10;;;26.00;99.90;;;;;;4899729;29;20713;-90
2021/07/28 22:17:53;;;;;;;;;;;26.00;99.90;;;;;;4901146;29;20044;-90
2021/07/28 22:20:20;;;;;;;26.83;8.40;;;26.00;99.90;;;;;;4902596;29;19915;-88
2021/07/28 22:22:46;;;;;;;19.05;7.28;;;26.00;99.90;;;;;;4898873;29;20474;-89
2021/07/28 22:25:12;;;;;;;20.88;8.80;;;26.00;99.90;;;;;;4882302;29;20431;-89
2021/07/28 22:27:38;;;;;;;31.08;8.35;;;25.90;99.90;;;;;;4900708;29;20032;-87
2021/07/28 22:30:05;;;;;;;23.00;8.13;;;25.90;99.90;;;;;;4911703;29;20063;-87
2021/07/28 22:32:30;;;;;;;21.73;8.02;;;25.90;99.90;;;;;;4916867;29;20032;-86
2021/07/28 22:34:56;;;;;;;24.67;8.48;;;25.90;99.90;;;;;;4917789;29;20047;-84
2021/07/28 22:37:22;;;;;;;17.90;7.35;;;25.80;99.90;;;;;;4918193;29;20047;-89
2021/07/28 22:39:47;;;;;;;19.08;8.13;;;25.80;99.90;;;;;;4918259;29;20028;-85
2021/07/28 22:42:13;;;;;;;25.23;8.20;;;25.80;99.90;;;;;;4918253;29;20374;-86
2021/07/28 22:44:38;;;;;;;13.30;7.63;;;25.80;99.90;;;;;;4917557;29;20371;-86
2021/07/28 22:47:09;;;;;;;21.35;8.32;;;25.80;99.90;;;;;;4900543;29;20032;-85
2021/07/28 22:55:04;;;;;;;17.58;8.27;;;25.60;99.90;;;;;;4911169;29;20132;-85
2021/07/28 22:57:30;;;;;;;23.02;8.93;;;25.50;99.90;;;;;;4911993;29;20108;-91
2021/07/28 23:08:03;;;;;;;16.20;8.43;;;25.30;99.90;;;;;;4899043;29;20410;-86
2021/07/28 23:10:28;;;;;;;21.80;8.57;;;25.20;99.90;;;;;;4909432;29;20135;-86
2021/07/28 23:12:54;;;;;;;15.73;7.60;;;25.30;99.90;;;;;;4905300;29;20051;-87
2021/07/28 23:15:20;;;;;;;15.63;8.32;;;25.20;99.90;;;;;;4917591;29;20052;-91
2021/07/28 23:17:46;;;;;;;25.15;8.95;;;25.20;99.90;;;;;;4904601;29;20029;-86
2021/07/28 23:20:12;;;;;;;19.27;8.60;;;25.10;99.90;;;;;;4881703;29;20041;-85
2021/07/28 23:22:38;;;;;;;29.10;8.77;;;25.10;99.90;;;;;;4898570;29;20052;-89
2021/07/28 23:25:04;;;;;;;22.05;8.63;;;25.00;99.90;;;;;;4898901;29;20060;-85
2021/07/28 23:27:30;;;;;;;16.77;8.32;;;25.10;99.90;;;;;;4881859;29;20490;-86
2021/07/28 23:29:55;;;;;;;18.52;8.98;;;25.00;99.90;;;;;;4887445;29;20117;-89
2021/07/28 23:32:21;;;;;;;17.45;8.65;;;25.00;99.90;;;;;;4904105;29;20060;-86
2021/07/28 23:34:46;;;;;;;16.00;8.18;;;24.90;99.90;;;;;;4882195;29;20131;-86
2021/07/28 23:37:12;;;;;;;20.13;9.48;;;24.90;99.90;;;;;;4888712;29;20132;-90
2021/07/28 23:39:38;;;;;;;22.08;9.35;;;24.90;99.90;;;;;;4898161;29;20073;-85
2021/07/28 23:42:03;;;;;;;20.88;8.43;;;24.90;99.90;;;;;;4880541;29;20065;-86
2021/07/28 23:44:29;;;;;;;20.52;8.63;;;24.80;99.90;;;;;;4881330;29;20033;-85
2021/07/28 23:46:54;;;;;;;20.30;7.90;;;24.80;99.90;;;;;;4898294;29;20482;-91
2021/07/28 23:49:21;;;;;;;17.33;8.18;;;24.70;99.90;;;;;;4898114;29;20068;-91
2021/07/28 23:51:46;;;;;;;33.40;9.00;;;24.70;99.90;;;;;;4899483;29;20032;-88
2021/07/28 23:54:12;;;;;;;13.10;8.00;;;24.70;99.90;;;;;;4893837;29;20127;-90
2021/07/28 23:56:40;;;;;;;19.30;8.02;;;24.70;99.90;;;;;;4898086;29;20080;-87
2021/07/28 23:59:05;;;;;;;24.15;8.77;;;24.70;99.90;;;;;;4898168;29;20081;-87
